Time;durP1;ratioP1;P1;durP2;ratioP2;P2;SDS_P1;SDS_P2;PMS_P1;PMS_P2;Temp;Humidity;BMP_temperature;BMP_pressure;BME280_temperature;BME280_humidity;BME280_pressure;Samples;Min_cycle;Max_cycle;Signal;HPM_P1;HPM_P2
2021/08/06 00:00:07;;;;;;;;;;;;;;;23.12;58.78;92583.88;5070891;28;19912;-52
2021/08/06 00:02:33;;;;;;;;;;;;;;;23.00;59.61;92580.63;5070349;28;19909;-49
2021/08/06 00:04:58;;;;;;;;;;;;;;;22.79;60.42;92597.47;5071087;28;20007;-51
2021/08/06 00:07:24;;;;;;;;;;;;;;;22.50;61.10;92573.91;5051925;28;19909;-53
2021/08/06 00:09:49;;;;;;;;;;;;;;;22.69;60.23;92603.47;5071129;28;19912;-52
2021/08/06 00:12:14;;;;;;;;;;;;;;;22.66;60.59;92601.94;5071205;28;19954;-57
2021/08/06 00:14:40;;;;;;;;;;;;;;;22.69;60.55;92583.03;5071040;28;20378;-58
2021/08/06 00:17:05;;;;;;;;;;;;;;;22.49;60.46;92577.38;5071126;28;19973;-55
2021/08/06 00:19:30;;;;;;;;;;;;;;;22.41;60.42;92566.59;5070833;28;20396;-56
2021/08/06 00:21:55;;;;;;;;;;;;;;;22.49;60.05;92564.06;5070642;28;19951;-55
2021/08/06 00:24:21;;;;;;;;;;;;;;;22.57;59.86;92552.34;5071124;28;20013;-54
2021/08/06 00:26:46;;;;;;;;;;;;;;;22.71;59.18;92557.78;5072064;28;20317;-51
2021/08/06 00:29:11;;;;;;;;;;;;;;;22.80;59.18;92553.88;5111542;28;19951;-50
2021/08/06 00:31:37;;;;;;;;;;;;;;;22.79;59.31;92561.59;5101449;28;19912;-54
2021/08/06 00:34:02;;;;;;;;;;;;;;;22.79;59.45;92541.91;5090879;28;19908;-55
2021/08/06 00:36:28;;;;;;;;;;;;;;;22.82;59.35;92546.25;5090908;28;19915;-55
2021/08/06 00:38:53;;;;;;;;;;;;;;;22.86;59.71;92540.03;5090839;28;19908;-53
2021/08/06 00:41:18;;;;;;;;;;;;;;;22.89;59.27;92547.88;5091089;28;19951;-55
2021/08/06 00:43:43;;;;;;;;;;;;;;;22.86;59.76;92549.19;5074310;28;19908;-56
2021/08/06 00:46:13;;;;;;;;;;;;;;;22.94;59.60;92555.09;5091541;28;19912;-56
2021/08/06 00:48:38;;;;;;;;;;;;;;;22.92;59.33;92546.56;5111140;28;20376;-55
2021/08/06 00:51:03;;;;;;;;;;;;;;;22.91;59.79;92547.97;5111243;28;19908;-53
2021/08/06 00:53:28;;;;;;;;;;;;;;;22.92;59.60;92534.59;5111086;28;19986;-49
2021/08/06 00:55:54;;;;;;;;;;;;;;;22.81;59.42;92533.53;5111012;28;19916;-58
2021/08/06 00:58:20;;;;;;;;;;;;;;;22.75;59.24;92541.03;5110919;28;19920;-57
2021/08/06 01:00:46;;;;;;;;;;;;;;;22.77;59.33;92541.13;5111142;28;19923;-56
2021/08/06 01:03:14;;;;;;;;;;;;;;;22.75;59.08;92532.59;5111285;28;19961;-57
2021/08/06 01:05:43;;;;;;;;;;;;;;;22.76;58.86;92525.63;5092822;28;19912;-49
2021/08/06 01:08:16;;;;;;;;;;;;;;;22.68;59.07;92520.41;5110955;28;19917;-49
2021/08/06 01:10:44;;;;;;;;;;;;;;;22.55;59.17;92516.44;5110850;28;20379;-50
2021/08/06 01:13:10;;;;;;;;;;;;;;;22.67;59.54;92521.81;5112066;28;20445;-48
2021/08/06 01:15:36;;;;;;;;;;;;;;;22.71;59.34;92507.13;5096692;28;19908;-49
2021/08/06 01:18:02;;;;;;;;;;;;;;;22.66;60.03;92497.09;5114806;28;19908;-52
2021/08/06 01:20:31;;;;;;;;;;;;;;;22.74;59.83;92492.47;5114792;28;19911;-52
2021/08/06 01:23:03;;;;;;;;;;;;;;;22.75;59.98;92481.94;5096804;28;20002;-51
2021/08/06 01:25:38;;;;;;;;;;;;;;;22.77;59.90;92476.38;5115016;28;19915;-48
2021/08/06 01:28:04;;;;;;;;;;;;;;;22.75;59.70;92484.75;5084627;28;20002;-52
2021/08/06 01:30:29;;;;;;;;;;;;;;;22.36;60.45;92499.56;5076417;28;19977;-48
2021/08/06 01:32:55;;;;;;;;;;;;;;;21.99;61.25;92514.41;5094384;28;19939;-49
2021/08/06 01:35:20;;;;;;;;;;;;;;;21.76;61.35;92523.34;5094416;28;19908;-49
2021/08/06 01:37:46;;;;;;;;;;;;;;;21.62;60.92;92525.59;5094030;28;19907;-49
2021/08/06 01:40:11;;;;;;;;;;;;;;;21.58;61.08;92531.78;5094024;28;19912;-49
2021/08/06 01:42:39;;;;;;;;;;;;;;;21.71;59.69;92535.78;5086688;28;20304;-47
2021/08/06 01:45:06;;;;;;;;;;;;;;;21.88;61.43;92537.88;5073609;28;20298;-49
2021/08/06 01:47:31;;;;;;;;;;;;;;;21.91;60.92;92519.72;5072713;28;20320;-51
2021/08/06 01:49:58;;;;;;;;;;;;;;;21.88;61.45;92521.72;5073850;28;19983;-50
2021/08/06 01:52:29;;;;;;;;;;;;;;;21.93;61.00;92516.25;5072587;28;20010;-48
2021/08/06 01:54:54;;;;;;;;;;;;;;;22.06;60.99;92509.72;5072317;28;20412;-50
2021/08/06 01:57:20;;;;;;;;;;;;;;;22.13;60.49;92506.50;5076340;28;19916;-50
2021/08/06 01:59:45;;;;;;;;;;;;;;;22.16;60.63;92510.09;5075763;28;19912;-52
2021/08/06 02:02:10;;;;;;;;;;;;;;;22.22;60.65;92513.13;5093915;28;20350;-51
2021/08/06 02:04:36;;;;;;;;;;;;;;;22.22;60.42;92524.38;5093755;28;20017;-53
2021/08/06 02:07:01;;;;;;;;;;;;;;;22.16;60.43;92510.09;5093508;28;20282;-49
2021/08/06 02:09:26;;;;;;;;;;;;;;;22.16;60.54;92510.81;5093716;28;19908;-47
2021/08/06 02:11:52;;;;;;;;;;;;;;;22.18;60.45;92516.50;5075389;28;19928;-52
2021/08/06 02:14:17;;;;;;;;;;;;;;;22.14;60.79;92518.44;5093647;28;19983;-49
2021/08/06 02:16:43;;;;;;;;;;;;;;;22.13;60.67;92520.56;5093273;28;19930;-53
2021/08/06 02:19:08;;;;;;;;;;;;;;;22.22;59.86;92527.19;5075250;28;19911;-51
2021/08/06 02:21:34;;;;;;;;;;;;;;;22.21;57.40;92520.84;5095735;28;19920;-52
2021/08/06 02:24:05;;;;;;;;;;;;;;;22.26;58.55;92518.91;5081191;28;19912;-50
2021/08/06 02:26:30;;;;;;;;;;;;;;;22.33;58.22;92509.28;5092650;28;20015;-48
2021/08/06 02:28:56;;;;;;;;;;;;;;;22.31;56.79;92500.78;5093870;28;19943;-49
2021/08/06 02:31:21;;;;;;;;;;;;;;;22.31;57.13;92515.56;5095474;28;19994;-50
2021/08/06 02:33:46;;;;;;;;;;;;;;;22.32;58.74;92513.50;5095494;28;19907;-51
2021/08/06 02:36:12;;;;;;;;;;;;;;;22.38;58.81;92513.69;5095134;28;20394;-49
2021/08/06 02:38:38;;;;;;;;;;;;;;;22.36;59.00;92505.19;5112979;28;19907;-49
2021/08/06 02:41:03;;;;;;;;;;;;;;;22.39;58.93;92510.22;5113502;28;19918;-49
2021/08/06 02:43:29;;;;;;;;;;;;;;;22.35;58.55;92498.84;5098311;28;19911;-50
2021/08/06 02:45:54;;;;;;;;;;;;;;;22.11;59.53;92494.44;5074680;28;19908;-46
2021/08/06 02:48:19;;;;;;;;;;;;;;;22.06;60.10;92487.22;5092856;28;20445;-50
2021/08/06 02:50:44;;;;;;;;;;;;;;;22.03;60.14;92494.88;5074915;28;19915;-48
2021/08/06 02:53:10;;;;;;;;;;;;;;;21.92;59.11;92498.66;5093216;28;20015;-49
2021/08/06 02:55:35;;;;;;;;;;;;;;;21.92;58.94;92509.22;5092403;28;19916;-49
2021/08/06 02:58:00;;;;;;;;;;;;;;;21.91;58.83;92507.75;5092881;28;19908;-48
2021/08/06 03:00:26;;;;;;;;;;;;;;;21.90;58.84;92507.03;5092642;28;19935;-48
2021/08/06 03:02:51;;;;;;;;;;;;;;;21.89;59.09;92500.69;5092106;28;19999;-51
2021/08/06 03:05:16;;;;;;;;;;;;;;;21.82;58.42;92484.22;5092632;28;19915;-48
2021/08/06 03:07:47;;;;;;;;;;;;;;;21.83;58.97;92483.59;5092672;28;20359;-47
2021/08/06 03:10:12;;;;;;;;;;;;;;;21.80;58.67;92495.41;5092643;28;19980;-50
2021/08/06 03:12:37;;;;;;;;;;;;;;;21.87;59.61;92494.28;5092475;28;20373;-49
2021/08/06 03:15:02;;;;;;;;;;;;;;;21.93;58.65;92488.16;5092238;28;19908;-48
2021/08/06 03:17:28;;;;;;;;;;;;;;;21.87;58.50;92494.28;5092346;28;19912;-49
2021/08/06 03:19:53;;;;;;;;;;;;;;;21.91;58.42;92504.94;5097860;28;19965;-49
2021/08/06 03:22:18;;;;;;;;;;;;;;;21.94;57.56;92509.97;5112674;28;19947;-48
2021/08/06 03:24:43;;;;;;;;;;;;;;;21.96;58.32;92510.06;5112680;28;19914;-50
2021/08/06 03:27:09;;;;;;;;;;;;;;;22.01;56.90;92502.50;5111986;28;19911;-48
2021/08/06 03:29:34;;;;;;;;;;;;;;;22.10;54.91;92504.25;5112553;28;19960;-48
2021/08/06 03:31:59;;;;;;;;;;;;;;;22.16;54.71;92521.31;5112569;28;19915;-49
2021/08/06 03:34:24;;;;;;;;;;;;;;;22.20;55.90;92524.31;5112184;28;19908;-50
2021/08/06 03:36:50;;;;;;;;;;;;;;;22.17;55.99;92517.88;5111447;28;19914;-48
2021/08/06 03:39:15;;;;;;;;;;;;;;;22.20;55.85;92515.88;5111076;28;20293;-48
2021/08/06 03:41:40;;;;;;;;;;;;;;;22.18;54.32;92513.69;5112190;28;19912;-49
2021/08/06 03:44:06;;;;;;;;;;;;;;;22.19;53.05;92531.28;5092220;28;19908;-48
2021/08/06 03:46:31;;;;;;;;;;;;;;;22.22;52.84;92541.25;5091648;28;20362;-46
2021/08/06 03:48:56;;;;;;;;;;;;;;;22.27;53.33;92540.00;5091472;28;20006;-50
2021/08/06 03:51:21;;;;;;;;;;;;;;;22.26;52.42;92544.91;5091915;28;20014;-48
2021/08/06 03:53:47;;;;;;;;;;;;;;;22.24;52.28;92536.41;5091403;28;19908;-47
2021/08/06 03:56:12;;;;;;;;;;;;;;;22.18;52.03;92553.06;5091394;28;19916;-48
2021/08/06 03:58:37;;;;;;;;;;;;;;;22.17;51.78;92551.63;5091386;28;20344;-49
2021/08/06 04:01:03;;;;;;;;;;;;;;;22.17;51.94;92557.25;5091560;28;19911;-48
2021/08/06 04:03:28;;;;;;;;;;;;;;;22.11;51.60;92562.63;5091635;28;19912;-48
2021/08/06 04:05:53;;;;;;;;;;;;;;;22.17;51.96;92573.41;5091588;28;19957;-48
2021/08/06 04:08:19;;;;;;;;;;;;;;;22.14;51.27;92566.97;5091195;28;19916;-47
2021/08/06 04:10:44;;;;;;;;;;;;;;;22.18;51.43;92574.81;5091026;28;19915;-46
2021/08/06 04:13:09;;;;;;;;;;;;;;;22.14;51.21;92572.59;5091435;28;20304;-47
2021/08/06 04:15:34;;;;;;;;;;;;;;;22.12;50.93;92572.50;5091230;28;20517;-54
2021/08/06 04:18:00;;;;;;;;;;;;;;;22.13;50.75;92578.88;5091430;28;19915;-51
2021/08/06 04:20:25;;;;;;;;;;;;;;;22.12;50.45;92586.56;5090966;28;19916;-53
2021/08/06 04:22:50;;;;;;;;;;;;;;;22.12;50.09;92588.66;5108927;28;19908;-54
2021/08/06 04:25:15;;;;;;;;;;;;;;;22.17;50.15;92604.31;5111576;28;19974;-49
2021/08/06 04:27:41;;;;;;;;;;;;;;;22.15;49.63;92612.69;5111282;28;19972;-50
2021/08/06 04:30:07;;;;;;;;;;;;;;;22.16;49.63;92623.28;5111567;28;19914;-52
2021/08/06 04:32:32;;;;;;;;;;;;;;;22.17;50.24;92626.81;5111580;28;19907;-51
2021/08/06 04:34:57;;;;;;;;;;;;;;;22.19;50.52;92615.66;5111505;28;19915;-49
2021/08/06 04:37:23;;;;;;;;;;;;;;;22.23;51.09;92616.53;5111218;28;20396;-50
2021/08/06 04:39:48;;;;;;;;;;;;;;;22.19;51.29;92618.44;5111109;28;19967;-52
2021/08/06 04:42:13;;;;;;;;;;;;;;;22.18;51.44;92619.81;5107158;28;19908;-50
2021/08/06 04:44:39;;;;;;;;;;;;;;;22.18;51.52;92617.00;5091067;28;19997;-49
2021/08/06 04:47:04;;;;;;;;;;;;;;;22.18;52.04;92626.16;5091102;28;19914;-49
2021/08/06 04:49:30;;;;;;;;;;;;;;;22.23;52.17;92627.75;5094504;28;19915;-51
2021/08/06 04:51:55;;;;;;;;;;;;;;;22.32;52.21;92634.41;5095805;28;19915;-49
2021/08/06 04:54:20;;;;;;;;;;;;;;;22.34;51.57;92626.78;5115550;28;19911;-51
2021/08/06 04:56:45;;;;;;;;;;;;;;;22.36;51.37;92629.66;5115140;28;20396;-53
2021/08/06 04:59:11;;;;;;;;;;;;;;;22.39;51.01;92628.34;5115047;28;19994;-51
2021/08/06 05:01:36;;;;;;;;;;;;;;;22.48;50.74;92630.09;5115350;28;19911;-51
2021/08/06 05:04:01;;;;;;;;;;;;;;;22.63;51.93;92637.72;5115459;28;19946;-51
2021/08/06 05:06:27;;;;;;;;;;;;;;;22.71;52.36;92628.13;5115354;28;19907;-47
2021/08/06 05:08:52;;;;;;;;;;;;;;;22.86;52.36;92633.63;5115065;28;19994;-50
2021/08/06 05:11:17;;;;;;;;;;;;;;;22.95;51.37;92637.47;5114901;28;19907;-49
2021/08/06 05:13:42;;;;;;;;;;;;;;;22.97;50.85;92643.88;5114935;28;20002;-48
2021/08/06 05:16:08;;;;;;;;;;;;;;;22.96;51.46;92653.69;5109185;28;19958;-48
2021/08/06 05:18:36;;;;;;;;;;;;;;;22.95;51.68;92652.25;5094470;28;19908;-48
2021/08/06 05:21:01;;;;;;;;;;;;;;;22.90;51.27;92641.50;5094421;28;19912;-48
2021/08/06 05:23:26;;;;;;;;;;;;;;;22.83;51.81;92651.09;5094668;28;20002;-48
2021/08/06 05:25:52;;;;;;;;;;;;;;;22.80;51.84;92655.22;5094359;28;19912;-47
2021/08/06 05:28:17;;;;;;;;;;;;;;;22.84;52.50;92663.81;5107909;28;19915;-48
2021/08/06 05:30:42;;;;;;;;;;;;;;;22.87;52.71;92679.41;5114679;28;20468;-47
2021/08/06 05:33:07;;;;;;;;;;;;;;;22.75;52.78;92676.13;5114529;28;19915;-48
2021/08/06 05:35:33;;;;;;;;;;;;;;;22.59;53.21;92674.16;5114771;28;19914;-47
2021/08/06 05:37:58;;;;;;;;;;;;;;;22.53;53.19;92673.91;5114777;28;19918;-47
2021/08/06 05:40:23;;;;;;;;;;;;;;;22.47;53.72;92678.59;5114692;28;19944;-49
2021/08/06 05:42:49;;;;;;;;;;;;;;;22.39;53.40;92679.00;5105358;28;19912;-51
2021/08/06 05:45:14;;;;;;;;;;;;;;;22.38;53.50;92676.81;5094280;28;19908;-49
2021/08/06 05:47:51;;;;;;;;;;;;;;;22.32;54.33;92680.16;5094098;28;19915;-49
2021/08/06 05:50:16;;;;;;;;;;;;;;;22.19;54.81;92666.97;5093955;28;19914;-55
2021/08/06 05:52:42;;;;;;;;;;;;;;;22.04;55.31;92662.19;5093821;28;19908;-52
2021/08/06 05:55:07;;;;;;;;;;;;;;;21.95;55.82;92666.03;5093563;28;19908;-50
2021/08/06 05:57:33;;;;;;;;;;;;;;;21.89;56.32;92668.59;5093974;28;19960;-49
2021/08/06 05:59:58;;;;;;;;;;;;;;;21.86;56.61;92681.13;5092369;28;19908;-51
2021/08/06 06:02:23;;;;;;;;;;;;;;;21.92;56.88;92677.84;5093896;28;19912;-54
2021/08/06 06:04:48;;;;;;;;;;;;;;;21.92;57.29;92681.34;5093585;28;19935;-55
2021/08/06 06:07:13;;;;;;;;;;;;;;;21.92;56.98;92670.13;5093840;28;20014;-54
2021/08/06 06:09:39;;;;;;;;;;;;;;;21.89;57.70;92679.84;5093792;28;19919;-49
2021/08/06 06:12:04;;;;;;;;;;;;;;;21.91;57.93;92690.44;5096723;28;19969;-49
2021/08/06 06:14:29;;;;;;;;;;;;;;;21.92;57.53;92708.75;5114087;28;19907;-51
2021/08/06 06:16:55;;;;;;;;;;;;;;;21.88;57.83;92695.25;5113976;28;19912;-52
2021/08/06 06:19:20;;;;;;;;;;;;;;;21.84;58.40;92687.41;5111282;28;19914;-55
2021/08/06 06:21:45;;;;;;;;;;;;;;;21.82;58.21;92694.97;5092238;28;20308;-55
2021/08/06 06:24:10;;;;;;;;;;;;;;;21.76;58.88;92706.72;5080044;28;19955;-57
2021/08/06 06:26:36;;;;;;;;;;;;;;;21.78;58.88;92711.69;5079648;28;19912;-54
2021/08/06 06:29:01;;;;;;;;;;;;;;;21.76;59.12;92711.59;5079032;28;19912;-57
2021/08/06 06:31:26;;;;;;;;;;;;;;;21.76;59.12;92720.75;5082516;28;19990;-57
2021/08/06 06:33:52;;;;;;;;;;;;;;;21.82;59.46;92711.84;5083060;28;20014;-57
2021/08/06 06:36:17;;;;;;;;;;;;;;;21.88;58.87;92717.72;5082535;28;19911;-57
2021/08/06 06:38:43;;;;;;;;;;;;;;;21.93;59.03;92718.63;5082902;28;20368;-53
2021/08/06 06:41:08;;;;;;;;;;;;;;;22.01;58.61;92718.94;5082176;28;20006;-53
2021/08/06 06:43:33;;;;;;;;;;;;;;;22.05;58.22;92711.41;5082182;28;19919;-57
2021/08/06 06:45:59;;;;;;;;;;;;;;;21.96;57.83;92706.09;5081366;28;19919;-53
2021/08/06 06:48:25;;;;;;;;;;;;;;;22.03;58.55;92702.88;5081365;28;20362;-56
2021/08/06 06:50:50;;;;;;;;;;;;;;;22.08;58.48;92703.78;5082351;28;19916;-56
2021/08/06 06:53:16;;;;;;;;;;;;;;;22.09;58.39;92702.41;5077214;28;19915;-58
2021/08/06 06:55:41;;;;;;;;;;;;;;;22.16;58.39;92701.28;5080004;28;19917;-54
2021/08/06 06:58:06;;;;;;;;;;;;;;;22.19;57.94;92695.09;5082111;28;19907;-56
2021/08/06 07:00:32;;;;;;;;;;;;;;;22.18;58.02;92704.88;5081663;28;20396;-57
2021/08/06 07:02:57;;;;;;;;;;;;;;;22.20;58.04;92701.44;5080055;28;20398;-55
2021/08/06 07:05:23;;;;;;;;;;;;;;;22.24;57.83;92707.22;5080437;28;19951;-55
2021/08/06 07:07:48;;;;;;;;;;;;;;;22.11;58.06;92708.13;5081523;28;19908;-58
2021/08/06 07:10:13;;;;;;;;;;;;;;;22.22;57.81;92709.97;5080512;28;20453;-58
2021/08/06 07:12:39;;;;;;;;;;;;;;;22.38;56.91;92702.88;5079880;28;19912;-58
2021/08/06 07:15:05;;;;;;;;;;;;;;;22.54;55.79;92694.34;5076878;28;20290;-56
2021/08/06 07:17:31;;;;;;;;;;;;;;;22.75;55.54;92687.38;5071867;28;19908;-52
2021/08/06 07:19:57;;;;;;;;;;;;;;;22.98;55.01;92689.63;5074222;28;20393;-57
2021/08/06 07:22:22;;;;;;;;;;;;;;;23.09;54.63;92688.63;5080473;28;19919;-57
2021/08/06 07:24:47;;;;;;;;;;;;;;;23.19;54.24;92684.09;5080137;28;19914;-54
2021/08/06 07:27:12;;;;;;;;;;;;;;;23.50;53.62;92685.19;5083933;28;19912;-57
2021/08/06 07:29:38;;;;;;;;;;;;;;;23.75;52.63;92693.06;5085471;28;19912;-57
2021/08/06 07:32:03;;;;;;;;;;;;;;;24.17;51.49;92676.84;5084056;28;19912;-54
2021/08/06 07:34:28;;;;;;;;;;;;;;;24.70;50.30;92688.34;5091136;28;19946;-53
2021/08/06 07:36:54;;;;;;;;;;;;;;;25.38;49.14;92687.47;5083404;28;20313;-57
2021/08/06 07:39:19;;;;;;;;;;;;;;;26.23;45.94;92681.22;5081269;28;19912;-57
2021/08/06 07:41:44;;;;;;;;;;;;;;;26.83;44.13;92676.94;5088223;28;20006;-58
2021/08/06 07:44:09;;;;;;;;;;;;;;;27.27;43.40;92665.81;5084797;28;19908;-57
2021/08/06 07:46:35;;;;;;;;;;;;;;;28.03;40.89;92668.66;5081207;28;19947;-57
2021/08/06 07:49:00;;;;;;;;;;;;;;;28.39;38.82;92652.25;5089717;28;19908;-56
2021/08/06 07:51:25;;;;;;;;;;;;;;;28.03;39.18;92646.69;5079901;28;20428;-54
2021/08/06 07:53:50;;;;;;;;;;;;;;;27.85;40.19;92648.50;5081445;28;19916;-53
2021/08/06 07:56:16;;;;;;;;;;;;;;;28.20;39.48;92639.16;5078893;28;19991;-51
2021/08/06 07:58:42;;;;;;;;;;;;;;;28.70;39.71;92627.84;5080264;28;19919;-53
2021/08/06 08:13:25;;;;;;;40.72;33.00;;;;;;;35.52;26.69;92613.66;5039265;28;21080;-55
2021/08/06 08:15:51;;;;;;;18.75;14.82;;;;;;;35.43;26.53;92609.44;5029943;28;20030;-52
2021/08/06 08:18:17;;;;;;;15.43;7.15;;;;;;;35.91;25.54;92613.84;5041972;27;20569;-52
2021/08/06 08:20:43;;;;;;;9.98;4.03;;;;;;;35.64;26.49;92622.09;5029732;28;20532;-58
2021/08/06 08:23:09;;;;;;;8.27;3.30;;;;;;;36.13;26.22;92607.78;5035212;28;20030;-57
2021/08/06 08:25:34;;;;;;;3.88;2.90;;;;;;;35.60;25.67;92602.78;5035329;28;20054;-58
2021/08/06 08:28:00;;;;;;;5.07;3.35;;;;;;;35.40;26.24;92611.63;5040567;27;20036;-58
2021/08/06 08:30:26;;;;;;;7.40;3.17;;;;;;;35.50;26.25;92610.78;5031467;28;20105;-58
2021/08/06 08:32:51;;;;;;;8.27;3.65;;;;;;;35.85;25.68;92611.78;5031648;28;20056;-58
2021/08/06 08:35:17;;;;;;;5.97;3.00;;;;;;;36.07;24.58;92614.34;5042301;27;20026;-59
2021/08/06 08:41:04;;;;;;;13.35;3.50;;;;;;;37.41;24.41;92627.94;5032752;28;20097;-59
2021/08/06 08:43:30;;;;;;;7.05;4.13;;;;;;;37.45;23.00;92624.28;5031829;28;20029;-56
2021/08/06 08:45:56;;;;;;;6.05;2.85;;;;;;;37.18;23.40;92616.13;5033754;28;20036;-58
2021/08/06 08:48:22;;;;;;;7.50;2.55;;;;;;;38.02;23.37;92629.59;5032011;28;20025;-58
2021/08/06 08:50:50;;;;;;;5.15;3.03;;;;;;;38.71;21.78;92622.97;5032286;28;20078;-57
2021/08/06 08:53:16;;;;;;;4.45;2.67;;;;;;;38.44;21.96;92620.69;5031985;28;20044;-59
2021/08/06 08:55:41;;;;;;;17.67;3.30;;;;;;;38.68;21.82;92625.91;5031595;28;20437;-60
2021/08/06 08:58:07;;;;;;;8.45;2.97;;;;;;;38.46;22.08;92640.88;5031878;28;20111;-60
2021/08/06 09:00:33;;;;;;;4.75;3.15;;;;;;;37.65;23.10;92644.03;5033496;28;20150;-60
2021/08/06 09:02:59;;;;;;;3.90;2.60;;;;;;;36.99;23.77;92637.38;5033123;28;20033;-59
2021/08/06 09:05:25;;;;;;;3.33;3.00;;;;;;;36.75;23.54;92635.59;5035661;27;20025;-60
2021/08/06 09:07:51;;;;;;;3.72;3.00;;;;;;;35.59;24.97;92635.09;5031716;28;20030;-59
2021/08/06 09:10:19;;;;;;;5.05;2.83;;;;;;;35.31;25.60;92639.00;5038779;27;20025;-58
2021/08/06 09:12:57;;;;;;;4.60;3.10;;;;;;;35.48;24.96;92628.03;5031982;28;20120;-57
2021/08/06 09:15:44;;;;;;;8.27;3.15;;;;;;;34.02;27.79;92625.06;5021142;28;20049;-56
2021/08/06 09:18:27;;;;;;;8.70;3.07;;;;;;;33.96;28.60;92640.09;5017612;28;20029;-57
2021/08/06 09:20:56;;;;;;;5.97;3.20;;;;;;;33.96;27.69;92636.53;5019775;28;20086;-58
2021/08/06 09:23:44;;;;;;;10.30;3.60;;;;;;;34.49;26.59;92628.28;5018121;28;20022;-58
2021/08/06 09:26:29;;;;;;;;;;;;;;;34.29;26.73;92629.88;5019992;28;20030;-57
2021/08/06 09:29:16;;;;;;;5.60;3.28;;;;;;;34.46;27.40;92638.34;5019534;28;19917;-57
2021/08/06 09:32:02;;;;;;;5.05;3.35;;;;;;;34.10;26.96;92630.72;5018329;28;20030;-58
2021/08/06 09:34:36;;;;;;;8.10;4.13;;;;;;;34.18;27.22;92636.38;5018658;28;20134;-58
2021/08/06 09:37:11;;;;;;;9.85;2.83;;;;;;;35.14;26.16;92637.03;5018062;28;20026;-59
2021/08/06 09:39:49;;;;;;;6.60;3.28;;;;;;;35.05;25.37;92634.25;5017327;28;20030;-59
2021/08/06 09:42:20;;;;;;;4.03;2.90;;;;;;;35.57;25.60;92635.84;5017161;28;20083;-58
2021/08/06 09:45:05;;;;;;;5.82;3.78;;;;;;;35.30;25.55;92631.84;5018327;28;20041;-58
2021/08/06 09:47:32;;;;;;;5.05;3.67;;;;;;;35.20;25.09;92643.41;5019234;28;20096;-59
2021/08/06 09:49:59;;;;;;;9.90;4.10;;;;;;;34.86;25.55;92638.72;5017064;28;20032;-64
2021/08/06 09:52:36;;;;;;;7.07;4.38;;;;;;;33.69;27.19;92632.38;5018517;28;20064;-62
2021/08/06 09:55:03;;;;;;;9.63;5.35;;;;;;;32.68;28.60;92632.66;5017602;28;20056;-57
2021/08/06 09:57:29;;;;;;;5.20;4.03;;;;;;;32.42;29.35;92630.50;5017980;28;20040;-60
2021/08/06 09:59:56;;;;;;;5.60;4.57;;;;;;;33.15;28.71;92607.56;5019321;28;20509;-59
2021/08/06 10:02:25;;;;;;;10.95;4.63;;;;;;;34.22;27.06;92622.03;5016398;28;20044;-60
2021/08/06 10:05:00;;;;;;;8.77;4.13;;;;;;;34.43;26.25;92636.94;5023151;28;20619;-60
2021/08/06 10:07:26;;;;;;;7.10;5.38;;;;;;;32.93;27.96;92588.28;5019994;28;20034;-61
2021/08/06 10:09:52;;;;;;;19.00;7.10;;;;;;;32.10;29.33;92613.34;5025337;27;20634;-59
2021/08/06 10:12:18;;;;;;;13.20;6.47;;;;;;;32.27;29.08;92617.66;5018975;28;20046;-61
2021/08/06 10:14:44;;;;;;;8.13;6.05;;;;;;;32.32;29.67;92621.94;5016991;28;20508;-59
2021/08/06 10:17:10;;;;;;;8.15;5.50;;;;;;;33.81;27.32;92618.69;5016258;28;20033;-59
2021/08/06 10:19:37;;;;;;;4.82;4.22;;;;;;;34.72;25.95;92623.78;5014283;28;20041;-62
2021/08/06 10:22:03;;;;;;;6.13;4.65;;;;;;;34.62;26.32;92618.16;5015511;28;20509;-65
2021/08/06 10:24:29;;;;;;;12.30;4.53;;;;;;;35.19;25.56;92627.66;5013586;28;20068;-60
2021/08/06 10:26:55;;;;;;;5.57;4.30;;;;;;;35.57;24.76;92615.72;5023871;27;21030;-63
2021/08/06 10:29:22;;;;;;;8.45;4.85;;;;;;;35.99;23.97;92616.63;5015148;28;20449;-62
2021/08/06 10:32:20;;;;;;;22.52;5.30;;;;;;;36.92;22.64;92601.50;5015516;28;20513;-60
2021/08/06 10:35:14;;;;;;;10.77;4.72;;;;;;;37.17;22.86;92611.09;4986475;28;20456;-62
2021/08/06 10:37:49;;;;;;;5.20;4.47;;;;;;;35.19;25.05;92610.44;5011644;28;20707;-60
2021/08/06 10:40:33;;;;;;;8.07;4.95;;;;;;;35.30;24.70;92597.41;5013969;28;20030;-63
2021/08/06 10:43:00;;;;;;;9.77;4.70;;;;;;;35.08;26.30;92568.94;5013773;28;20026;-63
2021/08/06 10:45:44;;;;;;;8.73;4.00;;;;;;;35.27;25.66;92586.66;5014639;28;20106;-65
2021/08/06 10:48:34;;;;;;;6.05;4.53;;;;;;;35.53;24.88;92592.81;5023978;28;20455;-63
2021/08/06 10:51:14;;;;;;;5.38;4.88;;;;;;;34.31;25.98;92591.88;5014076;28;20109;-62
2021/08/06 10:53:44;;;;;;;5.72;4.88;;;;;;;32.58;28.36;92566.94;5018735;28;20112;-62
2021/08/06 10:56:15;;;;;;;6.78;6.07;;;;;;;31.44;30.69;92588.25;5014252;28;20021;-61
2021/08/06 10:58:51;;;;;;;10.05;5.75;;;;;;;31.01;31.95;92587.38;5014338;28;20586;-60
2021/08/06 11:01:28;;;;;;;10.35;6.88;;;;;;;30.43;33.46;92581.34;5018640;27;20072;-59
2021/08/06 11:04:03;;;;;;;8.15;6.50;;;;;;;30.00;33.01;92585.97;5013776;28;20045;-60
2021/08/06 11:06:34;;;;;;;7.50;6.68;;;;;;;29.85;34.67;92587.97;5014819;28;20072;-63
2021/08/06 11:09:01;;;;;;;7.68;6.35;;;;;;;30.66;32.85;92562.94;5013888;28;20149;-61
2021/08/06 11:11:46;;;;;;;9.00;5.82;;;;;;;32.32;31.74;92576.22;5018659;27;20049;-62
2021/08/06 11:14:35;;;;;;;14.07;5.20;;;;;;;33.12;28.83;92583.94;5015226;28;20116;-60
2021/08/06 11:17:15;;;;;;;8.95;5.32;;;;;;;33.53;27.06;92570.91;5007288;28;20510;-62
2021/08/06 11:19:44;;;;;;;7.60;4.50;;;;;;;34.41;27.19;92568.88;5014153;28;20067;-61
2021/08/06 11:22:17;;;;;;;7.85;4.28;;;;;;;34.75;27.20;92576.44;5013998;28;20037;-59
2021/08/06 11:24:54;;;;;;;7.40;4.60;;;;;;;34.90;26.06;92566.25;5014044;28;20065;-61
2021/08/06 11:27:22;;;;;;;5.95;4.50;;;;;;;35.12;25.96;92568.19;5024657;27;20105;-61
2021/08/06 11:30:18;;;;;;;5.65;5.03;;;;;;;35.26;25.77;92565.16;5015034;28;20499;-62
2021/08/06 11:33:08;;;;;;;6.35;4.90;;;;;;;34.92;26.38;92577.69;5007830;28;20041;-62
2021/08/06 11:35:36;;;;;;;8.25;4.80;;;;;;;34.34;27.62;92581.81;5010186;28;20042;-59
2021/08/06 11:38:06;;;;;;;5.18;4.68;;;;;;;34.20;26.88;92581.94;5012596;28;20029;-60
2021/08/06 11:40:33;;;;;;;5.35;4.72;;;;;;;34.53;26.65;92579.53;5014985;28;20522;-59
2021/08/06 11:43:29;;;;;;;7.38;4.82;;;;;;;33.99;26.42;92580.63;5013395;28;20026;-60
2021/08/06 11:46:12;;;;;;;8.55;4.65;;;;;;;33.80;26.55;92568.59;5014791;28;20052;-60
2021/08/06 11:48:52;;;;;;;6.82;4.90;;;;;;;33.63;28.85;92572.28;5013786;28;20025;-62
2021/08/06 11:51:18;;;;;;;6.88;5.15;;;;;;;33.42;28.79;92565.94;5015281;28;20493;-65
2021/08/06 11:53:44;;;;;;;5.55;4.93;;;;;;;33.01;29.85;92573.28;5013742;28;20018;-65
2021/08/06 11:56:18;;;;;;;6.13;4.72;;;;;;;32.88;29.11;92567.56;5011581;28;20059;-65
2021/08/06 11:58:45;;;;;;;10.00;4.90;;;;;;;32.31;29.86;92565.53;5023137;27;20033;-66
2021/08/06 12:01:22;;;;;;;7.88;4.93;;;;;;;31.88;31.08;92556.22;5014135;28;20018;-61
2021/08/06 12:03:52;;;;;;;8.85;5.60;;;;;;;31.00;31.72;92568.84;5013939;28;20061;-58
2021/08/06 12:06:18;;;;;;;6.45;5.68;;;;;;;31.02;32.35;92560.28;5012902;28;20104;-60
2021/08/06 12:08:45;;;;;;;9.75;6.32;;;;;;;30.82;32.26;92554.47;5014223;28;20424;-59
2021/08/06 12:11:14;;;;;;;7.78;5.47;;;;;;;30.41;32.52;92555.66;5017589;28;20026;-60
2021/08/06 12:13:41;;;;;;;8.85;5.57;;;;;;;30.25;34.52;92561.97;5013036;28;20685;-59
2021/08/06 12:16:16;;;;;;;6.95;4.95;;;;;;;30.22;32.85;92554.09;5013836;28;20563;-59
2021/08/06 12:18:52;;;;;;;12.85;4.90;;;;;;;30.62;33.49;92560.09;5013516;28;20616;-60
2021/08/06 12:21:38;;;;;;;9.15;5.50;;;;;;;30.89;33.32;92560.94;5012037;28;20032;-58
2021/08/06 12:24:16;;;;;;;6.75;5.40;;;;;;;31.22;32.49;92560.38;5013429;28;20624;-58
2021/08/06 12:26:47;;;;;;;6.40;4.95;;;;;;;30.88;31.49;92556.66;5015181;28;20025;-59
2021/08/06 12:29:20;;;;;;;7.90;4.93;;;;;;;30.59;33.22;92565.06;5128329;27;20031;-59
2021/08/06 12:32:00;;;;;;;10.02;4.55;;;;;;;30.42;34.25;92562.81;5127678;27;20488;-60
2021/08/06 12:34:49;;;;;;;5.72;4.25;;;;;;;30.28;33.41;92554.84;5128573;27;20050;-59
2021/08/06 12:37:17;;;;;;;7.40;4.55;;;;;;;30.16;34.25;92557.63;5019242;27;20037;-59